sensor_id;sensor_type;location;lat;lon;timestamp;pressure;altitude;pressure_sealevel;temperature;humidity
3178;BME280;38141;42.666;23.344;2024-02-16T00:01:05;95230.03;;;2.83;100.00
3178;BME280;38141;42.666;23.344;2024-02-16T00:03:32;95230.06;;;2.75;100.00
3178;BME280;38141;42.666;23.344;2024-02-16T00:06:00;95227.69;;;2.73;100.00
3178;BME280;38141;42.666;23.344;2024-02-16T00:08:27;95232.91;;;2.69;100.00
3178;BME280;38141;42.666;23.344;2024-02-16T00:10:54;95231.50;;;2.72;100.00
3178;BME280;38141;42.666;23.344;2024-02-16T00:13:21;95233.22;;;2.77;100.00
3178;BME280;38141;42.666;23.344;2024-02-16T00:15:48;95229.72;;;2.85;100.00
3178;BME280;38141;42.666;23.344;2024-02-16T00:18:16;95233.34;;;2.80;100.00
3178;BME280;38141;42.666;23.344;2024-02-16T00:20:43;95230.34;;;2.82;100.00
3178;BME280;38141;42.666;23.344;2024-02-16T00:23:11;95227.84;;;2.85;100.00
3178;BME280;38141;42.666;23.344;2024-02-16T00:25:38;95232.59;;;2.71;100.00
3178;BME280;38141;42.666;23.344;2024-02-16T00:28:07;95237.66;;;2.55;100.00
3178;BME280;38141;42.666;23.344;2024-02-16T00:30:35;95241.94;;;2.39;100.00
3178;BME280;38141;42.666;23.344;2024-02-16T00:33:02;95237.66;;;2.55;100.00
3178;BME280;38141;42.666;23.344;2024-02-16T00:35:31;95238.34;;;2.27;100.00
3178;BME280;38141;42.666;23.344;2024-02-16T00:37:58;95245.25;;;2.19;100.00
3178;BME280;38141;42.666;23.344;2024-02-16T00:40:26;95228.59;;;2.05;100.00
3178;BME280;38141;42.666;23.344;2024-02-16T00:42:53;95233.47;;;2.03;100.00
3178;BME280;38141;42.666;23.344;2024-02-16T00:45:20;95240.25;;;2.09;100.00
3178;BME280;38141;42.666;23.344;2024-02-16T00:47:47;95241.78;;;2.18;100.00
3178;BME280;38141;42.666;23.344;2024-02-16T00:50:14;95238.34;;;2.18;100.00
3178;BME280;38141;42.666;23.344;2024-02-16T00:52:43;95242.56;;;2.28;100.00
3178;BME280;38141;42.666;23.344;2024-02-16T00:55:11;95244.28;;;2.41;100.00
3178;BME280;38141;42.666;23.344;2024-02-16T00:57:38;95248.84;;;2.32;100.00
3178;BME280;38141;42.666;23.344;2024-02-16T01:00:06;95236.78;;;2.08;100.00
3178;BME280;38141;42.666;23.344;2024-02-16T01:02:34;95235.66;;;2.01;100.00
3178;BME280;38141;42.666;23.344;2024-02-16T01:05:01;95237.72;;;1.87;100.00
3178;BME280;38141;42.666;23.344;2024-02-16T01:07:28;95242.88;;;2.00;100.00
3178;BME280;38141;42.666;23.344;2024-02-16T01:09:58;95236.31;;;2.06;100.00
3178;BME280;38141;42.666;23.344;2024-02-16T01:12:25;95239.75;;;2.24;100.00
3178;BME280;38141;42.666;23.344;2024-02-16T01:14:52;95245.06;;;2.24;100.00
3178;BME280;38141;42.666;23.344;2024-02-16T01:17:19;95236.63;;;2.22;100.00
3178;BME280;38141;42.666;23.344;2024-02-16T01:19:46;95239.44;;;2.17;100.00
3178;BME280;38141;42.666;23.344;2024-02-16T01:22:13;95229.06;;;2.15;100.00
3178;BME280;38141;42.666;23.344;2024-02-16T01:24:40;95227.03;;;2.21;100.00
3178;BME280;38141;42.666;23.344;2024-02-16T01:27:08;95208.69;;;2.02;100.00
3178;BME280;38141;42.666;23.344;2024-02-16T01:29:36;95235.69;;;2.27;100.00
3178;BME280;38141;42.666;23.344;2024-02-16T01:32:04;95223.44;;;2.17;100.00
3178;BME280;38141;42.666;23.344;2024-02-16T01:34:31;95224.22;;;2.09;100.00
3178;BME280;38141;42.666;23.344;2024-02-16T01:36:58;95219.84;;;2.13;100.00
3178;BME280;38141;42.666;23.344;2024-02-16T01:39:25;95214.16;;;2.06;100.00
3178;BME280;38141;42.666;23.344;2024-02-16T01:41:52;95217.63;;;2.06;100.00
3178;BME280;38141;42.666;23.344;2024-02-16T01:44:20;95223.44;;;2.00;100.00
3178;BME280;38141;42.666;23.344;2024-02-16T01:46:48;95222.03;;;1.94;100.00
3178;BME280;38141;42.666;23.344;2024-02-16T01:49:15;95219.84;;;2.04;100.00
3178;BME280;38141;42.666;23.344;2024-02-16T01:51:42;95209.16;;;1.96;100.00
3178;BME280;38141;42.666;23.344;2024-02-16T01:54:11;95205.41;;;1.88;100.00
3178;BME280;38141;42.666;23.344;2024-02-16T01:56:38;95216.56;;;1.82;100.00
3178;BME280;38141;42.666;23.344;2024-02-16T01:59:05;95215.28;;;1.79;100.00
3178;BME280;38141;42.666;23.344;2024-02-16T02:01:34;95198.97;;;1.72;100.00
3178;BME280;38141;42.666;23.344;2024-02-16T02:04:01;95212.16;;;1.86;100.00
3178;BME280;38141;42.666;23.344;2024-02-16T02:06:29;95215.59;;;1.69;100.00
3178;BME280;38141;42.666;23.344;2024-02-16T02:08:56;95214.34;;;1.84;100.00
3178;BME280;38141;42.666;23.344;2024-02-16T02:11:23;95213.69;;;1.78;100.00
3178;BME280;38141;42.666;23.344;2024-02-16T02:13:50;95202.25;;;1.95;100.00
3178;BME280;38141;42.666;23.344;2024-02-16T02:16:19;95213.38;;;2.14;100.00
3178;BME280;38141;42.666;23.344;2024-02-16T02:18:47;95204.28;;;2.06;100.00
3178;BME280;38141;42.666;23.344;2024-02-16T02:21:14;95213.22;;;2.19;100.00
3178;BME280;38141;42.666;23.344;2024-02-16T02:23:44;95209.94;;;1.70;100.00
3178;BME280;38141;42.666;23.344;2024-02-16T02:26:14;95206.19;;;1.80;100.00
3178;BME280;38141;42.666;23.344;2024-02-16T02:28:42;95215.91;;;1.76;100.00
3178;BME280;38141;42.666;23.344;2024-02-16T02:31:09;95217.94;;;1.96;100.00
3178;BME280;38141;42.666;23.344;2024-02-16T02:33:36;95216.84;;;1.71;100.00
3178;BME280;38141;42.666;23.344;2024-02-16T02:36:04;95216.22;;;1.66;100.00
3178;BME280;38141;42.666;23.344;2024-02-16T02:38:31;95223.88;;;1.50;100.00
3178;BME280;38141;42.666;23.344;2024-02-16T02:41:00;95222.91;;;1.46;100.00
3178;BME280;38141;42.666;23.344;2024-02-16T02:43:27;95220.22;;;1.29;100.00
3178;BME280;38141;42.666;23.344;2024-02-16T02:45:54;95212.53;;;1.19;100.00
3178;BME280;38141;42.666;23.344;2024-02-16T02:48:22;95217.19;;;1.05;100.00
3178;BME280;38141;42.666;23.344;2024-02-16T02:50:49;95217.50;;;1.03;100.00
3178;BME280;38141;42.666;23.344;2024-02-16T02:53:16;95206.59;;;1.22;100.00
3178;BME280;38141;42.666;23.344;2024-02-16T02:55:43;95219.28;;;1.25;100.00
3178;BME280;38141;42.666;23.344;2024-02-16T02:58:12;95218.84;;;1.31;100.00
3178;BME280;38141;42.666;23.344;2024-02-16T03:00:39;95217.91;;;1.45;100.00
3178;BME280;38141;42.666;23.344;2024-02-16T03:03:06;95216.03;;;1.45;100.00
3178;BME280;38141;42.666;23.344;2024-02-16T03:05:33;95202.72;;;1.45;100.00
3178;BME280;38141;42.666;23.344;2024-02-16T03:08:00;95220.91;;;1.52;100.00
3178;BME280;38141;42.666;23.344;2024-02-16T03:10:28;95210.53;;;1.50;100.00
3178;BME280;38141;42.666;23.344;2024-02-16T03:13:00;95216.63;;;1.33;100.00
3178;BME280;38141;42.666;23.344;2024-02-16T03:15:28;95222.03;;;1.03;100.00
3178;BME280;38141;42.666;23.344;2024-02-16T03:17:55;95220.00;;;1.00;100.00
3178;BME280;38141;42.666;23.344;2024-02-16T03:20:22;95219.53;;;0.98;100.00
3178;BME280;38141;42.666;23.344;2024-02-16T03:22:49;95220.63;;;1.05;100.00
3178;BME280;38141;42.666;23.344;2024-02-16T03:25:16;95227.59;;;1.32;100.00
3178;BME280;38141;42.666;23.344;2024-02-16T03:27:44;95211.47;;;1.37;100.00
3178;BME280;38141;42.666;23.344;2024-02-16T03:30:12;95215.72;;;1.38;100.00
3178;BME280;38141;42.666;23.344;2024-02-16T03:32:40;95206.44;;;1.27;100.00
3178;BME280;38141;42.666;23.344;2024-02-16T03:35:07;95215.25;;;1.36;100.00
3178;BME280;38141;42.666;23.344;2024-02-16T03:37:34;95216.34;;;1.44;100.00
3178;BME280;38141;42.666;23.344;2024-02-16T03:40:05;95221.03;;;1.47;100.00
3178;BME280;38141;42.666;23.344;2024-02-16T03:42:33;95224.47;;;1.39;100.00
3178;BME280;38141;42.666;23.344;2024-02-16T03:45:01;95220.06;;;1.17;100.00
3178;BME280;38141;42.666;23.344;2024-02-16T03:47:28;95220.97;;;1.12;100.00
3178;BME280;38141;42.666;23.344;2024-02-16T03:49:56;95224.59;;;1.16;100.00
3178;BME280;38141;42.666;23.344;2024-02-16T03:52:23;95233.94;;;1.05;100.00
3178;BME280;38141;42.666;23.344;2024-02-16T03:54:50;95232.34;;;0.96;100.00
3178;BME280;38141;42.666;23.344;2024-02-16T03:57:17;95223.06;;;0.84;100.00
3178;BME280;38141;42.666;23.344;2024-02-16T03:59:44;95224.81;;;0.89;100.00
3178;BME280;38141;42.666;23.344;2024-02-16T04:02:12;95219.47;;;1.37;100.00
3178;BME280;38141;42.666;23.344;2024-02-16T04:04:40;95218.53;;;1.42;100.00
3178;BME280;38141;42.666;23.344;2024-02-16T04:07:08;95222.72;;;1.17;100.00
3178;BME280;38141;42.666;23.344;2024-02-16T04:09:35;95218.19;;;1.26;100.00
3178;BME280;38141;42.666;23.344;2024-02-16T04:12:02;95221.50;;;1.31;100.00
3178;BME280;38141;42.666;23.344;2024-02-16T04:14:30;95219.59;;;1.23;100.00
3178;BME280;38141;42.666;23.344;2024-02-16T04:16:58;95219.31;;;1.42;100.00
3178;BME280;38141;42.666;23.344;2024-02-16T04:19:25;95224.97;;;1.41;100.00
3178;BME280;38141;42.666;23.344;2024-02-16T04:21:52;95218.84;;;1.40;100.00
3178;BME280;38141;42.666;23.344;2024-02-16T04:24:21;95209.41;;;1.25;100.00
3178;BME280;38141;42.666;23.344;2024-02-16T04:26:48;95223.09;;;1.50;100.00
3178;BME280;38141;42.666;23.344;2024-02-16T04:29:15;95206.13;;;1.37;100.00
3178;BME280;38141;42.666;23.344;2024-02-16T04:31:42;95208.50;;;1.47;100.00
3178;BME280;38141;42.666;23.344;2024-02-16T04:34:11;95219.16;;;1.39;100.00
3178;BME280;38141;42.666;23.344;2024-02-16T04:36:38;95222.09;;;1.20;100.00
3178;BME280;38141;42.666;23.344;2024-02-16T04:39:05;95216.56;;;1.08;100.00
3178;BME280;38141;42.666;23.344;2024-02-16T04:41:33;95216.56;;;1.08;100.00
3178;BME280;38141;42.666;23.344;2024-02-16T04:44:00;95222.88;;;1.20;100.00
3178;BME280;38141;42.666;23.344;2024-02-16T04:46:28;95226.25;;;1.60;100.00
3178;BME280;38141;42.666;23.344;2024-02-16T04:48:54;95229.28;;;1.19;100.00
3178;BME280;38141;42.666;23.344;2024-02-16T04:51:22;95231.75;;;0.99;100.00
3178;BME280;38141;42.666;23.344;2024-02-16T04:53:49;95232.22;;;1.09;100.00
3178;BME280;38141;42.666;23.344;2024-02-16T04:56:16;95229.75;;;1.04;100.00
3178;BME280;38141;42.666;23.344;2024-02-16T04:58:44;95233.50;;;1.03;100.00
3178;BME280;38141;42.666;23.344;2024-02-16T05:01:12;95245.44;;;1.23;100.00
3178;BME280;38141;42.666;23.344;2024-02-16T05:03:39;95236.69;;;1.22;100.00
3178;BME280;38141;42.666;23.344;2024-02-16T05:06:07;95243.38;;;1.11;100.00
3178;BME280;38141;42.666;23.344;2024-02-16T05:08:34;95240.75;;;1.20;100.00
3178;BME280;38141;42.666;23.344;2024-02-16T05:11:01;95241.97;;;1.14;100.00
3178;BME280;38141;42.666;23.344;2024-02-16T05:13:28;95242.47;;;1.16;100.00
3178;BME280;38141;42.666;23.344;2024-02-16T05:17:24;95243.97;;;1.00;100.00
3178;BME280;38141;42.666;23.344;2024-02-16T05:19:51;95253.97;;;0.94;100.00
3178;BME280;38141;42.666;23.344;2024-02-16T05:22:19;95257.56;;;0.89;100.00
3178;BME280;38141;42.666;23.344;2024-02-16T05:24:47;95263.06;;;0.93;100.00
3178;BME280;38141;42.666;23.344;2024-02-16T05:27:14;95250.13;;;0.78;100.00
3178;BME280;38141;42.666;23.344;2024-02-16T05:29:42;95264.63;;;0.94;100.00
3178;BME280;38141;42.666;23.344;2024-02-16T05:32:09;95261.72;;;0.82;100.00
3178;BME280;38141;42.666;23.344;2024-02-16T05:34:39;95259.44;;;0.89;100.00
3178;BME280;38141;42.666;23.344;2024-02-16T05:37:07;95267.16;;;0.99;100.00
3178;BME280;38141;42.666;23.344;2024-02-16T05:39:36;95278.66;;;1.17;100.00
3178;BME280;38141;42.666;23.344;2024-02-16T05:42:19;95270.41;;;1.36;100.00
3178;BME280;38141;42.666;23.344;2024-02-16T05:44:47;95264.84;;;1.63;100.00
3178;BME280;38141;42.666;23.344;2024-02-16T05:47:15;95277.09;;;1.90;100.00
3178;BME280;38141;42.666;23.344;2024-02-16T05:49:45;95273.66;;;2.15;100.00
3178;BME280;38141;42.666;23.344;2024-02-16T05:52:12;95271.44;;;2.34;100.00
3178;BME280;38141;42.666;23.344;2024-02-16T05:54:46;95272.50;;;2.67;100.00
3178;BME280;38141;42.666;23.344;2024-02-16T05:57:16;95275.38;;;3.00;100.00
3178;BME280;38141;42.666;23.344;2024-02-16T05:59:43;95276.53;;;2.82;100.00
3178;BME280;38141;42.666;23.344;2024-02-16T06:02:11;95269.09;;;3.05;100.00
3178;BME280;38141;42.666;23.344;2024-02-16T06:04:38;95275.78;;;3.57;100.00
3178;BME280;38141;42.666;23.344;2024-02-16T06:07:07;95281.63;;;3.80;100.00
3178;BME280;38141;42.666;23.344;2024-02-16T06:09:35;95284.34;;;4.55;100.00
3178;BME280;38141;42.666;23.344;2024-02-16T06:12:03;95279.00;;;4.87;100.00
3178;BME280;38141;42.666;23.344;2024-02-16T06:14:32;95281.53;;;5.41;100.00
3178;BME280;38141;42.666;23.344;2024-02-16T06:16:59;95278.06;;;5.77;100.00
3178;BME280;38141;42.666;23.344;2024-02-16T06:19:26;95288.69;;;6.10;98.03
3178;BME280;38141;42.666;23.344;2024-02-16T06:21:54;95290.34;;;6.54;93.75
3178;BME280;38141;42.666;23.344;2024-02-16T06:24:22;95284.56;;;6.96;88.50
3178;BME280;38141;42.666;23.344;2024-02-16T06:26:50;95280.63;;;7.21;87.32
3178;BME280;38141;42.666;23.344;2024-02-16T06:29:17;95278.31;;;7.86;80.42
3178;BME280;38141;42.666;23.344;2024-02-16T06:31:45;95295.28;;;8.37;75.90
3178;BME280;38141;42.666;23.344;2024-02-16T06:34:12;95281.47;;;8.58;73.29
3178;BME280;38141;42.666;23.344;2024-02-16T06:36:38;95284.63;;;9.02;70.01
3178;BME280;38141;42.666;23.344;2024-02-16T06:39:05;95284.13;;;9.15;66.68
3178;BME280;38141;42.666;23.344;2024-02-16T06:41:34;95287.28;;;9.40;65.53
3178;BME280;38141;42.666;23.344;2024-02-16T06:44:01;95278.31;;;9.59;62.27
3178;BME280;38141;42.666;23.344;2024-02-16T06:46:28;95278.72;;;9.83;61.10
3178;BME280;38141;42.666;23.344;2024-02-16T06:48:55;95291.47;;;9.87;60.86
3178;BME280;38141;42.666;23.344;2024-02-16T06:51:23;95284.13;;;10.10;60.16
3178;BME280;38141;42.666;23.344;2024-02-16T06:53:50;95287.13;;;10.57;59.32
3178;BME280;38141;42.666;23.344;2024-02-16T06:56:18;95283.81;;;11.45;55.88
3178;BME280;38141;42.666;23.344;2024-02-16T06:58:47;95285.25;;;11.32;55.81
3178;BME280;38141;42.666;23.344;2024-02-16T07:01:14;95280.47;;;11.99;54.68
3178;BME280;38141;42.666;23.344;2024-02-16T07:03:43;95286.69;;;12.03;53.58
3178;BME280;38141;42.666;23.344;2024-02-16T07:06:10;95293.50;;;12.37;53.27
3178;BME280;38141;42.666;23.344;2024-02-16T07:08:39;95295.34;;;12.99;51.21
3178;BME280;38141;42.666;23.344;2024-02-16T07:11:06;95286.16;;;13.31;49.53
3178;BME280;38141;42.666;23.344;2024-02-16T07:13:33;95293.59;;;13.73;48.19
3178;BME280;38141;42.666;23.344;2024-02-16T07:16:01;95291.69;;;13.85;47.53
3178;BME280;38141;42.666;23.344;2024-02-16T07:18:29;95281.94;;;14.37;46.93
3178;BME280;38141;42.666;23.344;2024-02-16T07:20:56;95283.09;;;14.39;46.68
3178;BME280;38141;42.666;23.344;2024-02-16T07:23:24;95280.75;;;14.34;46.60
3178;BME280;38141;42.666;23.344;2024-02-16T07:25:51;95286.84;;;14.88;45.79
3178;BME280;38141;42.666;23.344;2024-02-16T07:28:20;95287.34;;;14.54;45.38
3178;BME280;38141;42.666;23.344;2024-02-16T07:30:47;95286.16;;;15.56;43.95
3178;BME280;38141;42.666;23.344;2024-02-16T07:33:16;95279.16;;;16.07;42.50
3178;BME280;38141;42.666;23.344;2024-02-16T07:35:43;95283.41;;;16.90;41.62
3178;BME280;38141;42.666;23.344;2024-02-16T07:38:10;95285.69;;;19.19;37.58
3178;BME280;38141;42.666;23.344;2024-02-16T07:40:37;95290.94;;;23.31;32.73
3178;BME280;38141;42.666;23.344;2024-02-16T07:43:04;95301.38;;;26.86;28.26
3178;BME280;38141;42.666;23.344;2024-02-16T07:45:31;95303.53;;;28.32;26.30
3178;BME280;38141;42.666;23.344;2024-02-16T07:47:58;95296.19;;;27.17;25.74
3178;BME280;38141;42.666;23.344;2024-02-16T07:50:31;95293.94;;;24.20;28.30
3178;BME280;38141;42.666;23.344;2024-02-16T07:52:58;95290.34;;;21.45;31.58
3178;BME280;38141;42.666;23.344;2024-02-16T07:55:25;95293.38;;;20.93;32.02
3178;BME280;38141;42.666;23.344;2024-02-16T07:57:52;95290.06;;;21.14;32.14
3178;BME280;38141;42.666;23.344;2024-02-16T08:00:20;95295.53;;;19.72;33.64
3178;BME280;38141;42.666;23.344;2024-02-16T08:02:47;95296.97;;;18.81;34.51
3178;BME280;38141;42.666;23.344;2024-02-16T08:05:14;95298.72;;;19.70;34.04
3178;BME280;38141;42.666;23.344;2024-02-16T08:07:46;95300.47;;;19.96;33.53
3178;BME280;38141;42.666;23.344;2024-02-16T08:10:13;95296.66;;;19.19;34.65
3178;BME280;38141;42.666;23.344;2024-02-16T08:12:40;95289.47;;;20.13;32.94
3178;BME280;38141;42.666;23.344;2024-02-16T08:15:08;95283.78;;;20.84;32.56
3178;BME280;38141;42.666;23.344;2024-02-16T08:17:36;95301.88;;;19.52;34.67
3178;BME280;38141;42.666;23.344;2024-02-16T08:20:04;95291.09;;;20.75;32.42
3178;BME280;38141;42.666;23.344;2024-02-16T08:22:31;95285.25;;;21.30;32.22
3178;BME280;38141;42.666;23.344;2024-02-16T08:25:01;95289.22;;;21.29;31.98
3178;BME280;38141;42.666;23.344;2024-02-16T08:27:28;95294.22;;;21.60;32.12
3178;BME280;38141;42.666;23.344;2024-02-16T08:29:55;95306.47;;;27.79;26.42
3178;BME280;38141;42.666;23.344;2024-02-16T08:32:22;95317.50;;;29.74;23.93
3178;BME280;38141;42.666;23.344;2024-02-16T08:34:49;95306.66;;;31.34;22.38
3178;BME280;38141;42.666;23.344;2024-02-16T08:37:16;95315.00;;;32.27;21.31
3178;BME280;38141;42.666;23.344;2024-02-16T08:39:43;95311.56;;;30.18;22.73
3178;BME280;38141;42.666;23.344;2024-02-16T08:42:12;95306.94;;;30.09;22.19
3178;BME280;38141;42.666;23.344;2024-02-16T08:44:39;95304.47;;;30.96;22.24
3178;BME280;38141;42.666;23.344;2024-02-16T08:47:09;95316.53;;;32.28;20.94
3178;BME280;38141;42.666;23.344;2024-02-16T08:49:36;95310.09;;;28.29;23.71
3178;BME280;38141;42.666;23.344;2024-02-16T08:52:06;95308.44;;;27.49;24.37
3178;BME280;38141;42.666;23.344;2024-02-16T08:54:33;95308.63;;;24.57;26.58
3178;BME280;38141;42.666;23.344;2024-02-16T08:57:00;95304.97;;;25.51;26.63
3178;BME280;38141;42.666;23.344;2024-02-16T08:59:29;95300.13;;;26.87;25.65
3178;BME280;38141;42.666;23.344;2024-02-16T09:01:56;95301.41;;;28.42;23.88
3178;BME280;38141;42.666;23.344;2024-02-16T09:04:24;95304.81;;;28.86;23.38
3178;BME280;38141;42.666;23.344;2024-02-16T09:06:51;95305.91;;;30.07;23.17
3178;BME280;38141;42.666;23.344;2024-02-16T09:09:18;95308.03;;;29.20;22.88
3178;BME280;38141;42.666;23.344;2024-02-16T09:11:45;95305.59;;;27.88;24.23
3178;BME280;38141;42.666;23.344;2024-02-16T09:14:12;95319.94;;;31.45;21.56
3178;BME280;38141;42.666;23.344;2024-02-16T09:16:41;95329.78;;;35.80;18.00
3178;BME280;38141;42.666;23.344;2024-02-16T09:19:08;95336.47;;;33.90;18.98
3178;BME280;38141;42.666;23.344;2024-02-16T09:21:35;95328.00;;;33.49;19.63
3178;BME280;38141;42.666;23.344;2024-02-16T09:24:02;95338.59;;;34.19;18.74
3178;BME280;38141;42.666;23.344;2024-02-16T09:26:30;95330.44;;;33.06;19.78
3178;BME280;38141;42.666;23.344;2024-02-16T09:28:58;95325.06;;;35.26;18.55
3178;BME280;38141;42.666;23.344;2024-02-16T09:31:25;95322.41;;;33.90;18.50
3178;BME280;38141;42.666;23.344;2024-02-16T09:33:54;95326.22;;;32.66;19.94
3178;BME280;38141;42.666;23.344;2024-02-16T09:36:21;95330.25;;;33.62;18.70
3178;BME280;38141;42.666;23.344;2024-02-16T09:38:48;95322.56;;;34.74;18.02
3178;BME280;38141;42.666;23.344;2024-02-16T09:41:16;95334.00;;;33.75;18.91
3178;BME280;38141;42.666;23.344;2024-02-16T09:43:43;95330.78;;;32.75;19.23
3178;BME280;38141;42.666;23.344;2024-02-16T09:46:10;95307.03;;;31.59;19.75
3178;BME280;38141;42.666;23.344;2024-02-16T09:48:39;95304.66;;;26.09;24.34
3178;BME280;38141;42.666;23.344;2024-02-16T09:51:08;95301.00;;;25.07;25.86
3178;BME280;38141;42.666;23.344;2024-02-16T09:53:35;95296.50;;;26.15;24.68
3178;BME280;38141;42.666;23.344;2024-02-16T09:56:05;95297.09;;;25.68;25.19
3178;BME280;38141;42.666;23.344;2024-02-16T09:58:34;95292.22;;;24.90;26.29
3178;BME280;38141;42.666;23.344;2024-02-16T10:01:02;95286.69;;;25.08;25.88
3178;BME280;38141;42.666;23.344;2024-02-16T10:03:29;95292.38;;;24.96;26.20
3178;BME280;38141;42.666;23.344;2024-02-16T10:06:04;95281.44;;;23.32;27.88
3178;BME280;38141;42.666;23.344;2024-02-16T10:08:34;95278.63;;;23.45;27.95
3178;BME280;38141;42.666;23.344;2024-02-16T10:11:02;95271.78;;;21.87;29.30
3178;BME280;38141;42.666;23.344;2024-02-16T10:13:29;95274.44;;;21.23;30.37
3178;BME280;38141;42.666;23.344;2024-02-16T10:16:07;95267.59;;;20.86;30.78
3178;BME280;38141;42.666;23.344;2024-02-16T10:18:35;95268.84;;;21.40;29.72
3178;BME280;38141;42.666;23.344;2024-02-16T10:21:02;95257.56;;;22.01;29.34
3178;BME280;38141;42.666;23.344;2024-02-16T10:23:29;95246.03;;;21.14;30.21
3178;BME280;38141;42.666;23.344;2024-02-16T10:25:58;95261.91;;;20.94;30.72
3178;BME280;38141;42.666;23.344;2024-02-16T10:28:28;95255.03;;;21.68;29.69
3178;BME280;38141;42.666;23.344;2024-02-16T10:30:58;95257.66;;;21.72;29.24
3178;BME280;38141;42.666;23.344;2024-02-16T10:33:27;95253.16;;;20.54;31.09
3178;BME280;38141;42.666;23.344;2024-02-16T10:35:55;95246.56;;;20.51;30.88
3178;BME280;38141;42.666;23.344;2024-02-16T10:38:24;95247.22;;;20.55;31.41
3178;BME280;38141;42.666;23.344;2024-02-16T10:40:53;95239.03;;;20.68;30.77
3178;BME280;38141;42.666;23.344;2024-02-16T10:43:22;95242.81;;;21.95;29.23
3178;BME280;38141;42.666;23.344;2024-02-16T10:45:51;95227.97;;;22.95;28.64
3178;BME280;38141;42.666;23.344;2024-02-16T10:48:19;95233.75;;;22.20;28.89
3178;BME280;38141;42.666;23.344;2024-02-16T10:50:46;95222.47;;;21.13;30.04
3178;BME280;38141;42.666;23.344;2024-02-16T10:53:21;95234.25;;;21.26;30.22
3178;BME280;38141;42.666;23.344;2024-02-16T10:55:50;95227.59;;;20.69;30.60
3178;BME280;38141;42.666;23.344;2024-02-16T10:58:17;95221.75;;;21.09;30.41
3178;BME280;38141;42.666;23.344;2024-02-16T11:00:53;95225.56;;;21.27;30.57
3178;BME280;38141;42.666;23.344;2024-02-16T11:03:24;95222.50;;;22.14;29.16
3178;BME280;38141;42.666;23.344;2024-02-16T11:05:52;95222.59;;;22.23;29.21
3178;BME280;38141;42.666;23.344;2024-02-16T11:08:21;95219.81;;;20.80;31.16
3178;BME280;38141;42.666;23.344;2024-02-16T11:10:58;95217.66;;;20.88;31.52
3178;BME280;38141;42.666;23.344;2024-02-16T11:13:27;95210.59;;;20.13;32.00
3178;BME280;38141;42.666;23.344;2024-02-16T11:15:59;95211.16;;;20.95;31.51
3178;BME280;38141;42.666;23.344;2024-02-16T11:18:27;95207.25;;;20.67;32.32
3178;BME280;38141;42.666;23.344;2024-02-16T11:20:54;95211.69;;;21.31;31.20
3178;BME280;38141;42.666;23.344;2024-02-16T11:23:27;95197.78;;;21.09;30.96
3178;BME280;38141;42.666;23.344;2024-02-16T11:25:59;95197.28;;;20.85;31.22
3178;BME280;38141;42.666;23.344;2024-02-16T11:28:27;95197.53;;;20.33;31.92
3178;BME280;38141;42.666;23.344;2024-02-16T11:30:54;95208.78;;;19.22;32.98
3178;BME280;38141;42.666;23.344;2024-02-16T11:33:23;95207.03;;;18.56;33.77
3178;BME280;38141;42.666;23.344;2024-02-16T11:35:55;95196.84;;;18.34;34.37
3178;BME280;38141;42.666;23.344;2024-02-16T11:38:23;95195.16;;;19.19;34.06
3178;BME280;38141;42.666;23.344;2024-02-16T11:41:00;95193.66;;;18.78;34.24
3178;BME280;38141;42.666;23.344;2024-02-16T11:43:28;95186.78;;;18.70;34.28
3178;BME280;38141;42.666;23.344;2024-02-16T11:45:59;95174.22;;;18.49;34.86
3178;BME280;38141;42.666;23.344;2024-02-16T11:48:28;95147.25;;;18.48;35.23
3178;BME280;38141;42.666;23.344;2024-02-16T11:51:01;95183.72;;;18.25;35.38
3178;BME280;38141;42.666;23.344;2024-02-16T11:53:31;95161.66;;;18.32;35.09
3178;BME280;38141;42.666;23.344;2024-02-16T11:55:59;95170.34;;;18.27;35.37
3178;BME280;38141;42.666;23.344;2024-02-16T11:58:30;95181.81;;;18.42;35.12
3178;BME280;38141;42.666;23.344;2024-02-16T12:00:57;95148.78;;;18.49;35.15
3178;BME280;38141;42.666;23.344;2024-02-16T12:03:27;95171.31;;;18.17;35.30
3178;BME280;38141;42.666;23.344;2024-02-16T12:05:56;95168.03;;;17.83;35.81
3178;BME280;38141;42.666;23.344;2024-02-16T12:08:32;95163.09;;;17.97;35.65
3178;BME280;38141;42.666;23.344;2024-02-16T12:10:59;95164.81;;;17.11;37.13
3178;BME280;38141;42.666;23.344;2024-02-16T12:13:29;95170.28;;;17.38;37.25
3178;BME280;38141;42.666;23.344;2024-02-16T12:15:58;95158.34;;;18.21;36.14
3178;BME280;38141;42.666;23.344;2024-02-16T12:18:26;95151.50;;;17.66;36.57
3178;BME280;38141;42.666;23.344;2024-02-16T12:21:00;95165.19;;;17.66;36.06
3178;BME280;38141;42.666;23.344;2024-02-16T12:23:30;95155.72;;;17.94;35.68
3178;BME280;38141;42.666;23.344;2024-02-16T12:25:58;95155.84;;;18.70;35.14
3178;BME280;38141;42.666;23.344;2024-02-16T12:28:29;95130.44;;;18.06;35.04
3178;BME280;38141;42.666;23.344;2024-02-16T12:30:58;95138.13;;;17.45;36.28
3178;BME280;38141;42.666;23.344;2024-02-16T12:33:25;95115.53;;;17.41;36.24
3178;BME280;38141;42.666;23.344;2024-02-16T12:35:53;95126.16;;;17.62;36.40
3178;BME280;38141;42.666;23.344;2024-02-16T12:38:25;95151.25;;;18.23;35.76
3178;BME280;38141;42.666;23.344;2024-02-16T12:40:52;95139.75;;;18.52;35.21
3178;BME280;38141;42.666;23.344;2024-02-16T12:43:23;95121.97;;;18.40;35.21
3178;BME280;38141;42.666;23.344;2024-02-16T12:45:55;95152.81;;;18.25;35.54
3178;BME280;38141;42.666;23.344;2024-02-16T12:48:29;95141.88;;;18.01;35.93
3178;BME280;38141;42.666;23.344;2024-02-16T12:50:57;95130.94;;;17.55;36.58
3178;BME280;38141;42.666;23.344;2024-02-16T12:53:26;95149.03;;;17.95;36.24
3178;BME280;38141;42.666;23.344;2024-02-16T12:55:56;95143.44;;;18.02;36.43
3178;BME280;38141;42.666;23.344;2024-02-16T12:58:24;95131.09;;;18.34;36.23
3178;BME280;38141;42.666;23.344;2024-02-16T13:01:01;95147.88;;;18.36;36.22
3178;BME280;38141;42.666;23.344;2024-02-16T13:03:28;95130.66;;;17.72;37.17
3178;BME280;38141;42.666;23.344;2024-02-16T13:05:55;95139.00;;;17.89;37.47